createdAt,value
2023-01-08T00:01:04.868Z,0.90
2023-01-08T00:03:32.115Z,0.68
2023-01-08T00:06:03.152Z,0.75
2023-01-08T00:08:30.768Z,0.90
2023-01-08T00:10:58.296Z,0.80
2023-01-08T00:13:25.660Z,0.75
2023-01-08T00:15:52.914Z,0.80
2023-01-08T00:18:20.130Z,0.88
2023-01-08T00:20:47.637Z,0.80
2023-01-08T00:23:15.615Z,0.80
2023-01-08T00:26:03.351Z,0.73
2023-01-08T00:28:30.649Z,1.00
2023-01-08T00:30:58.060Z,0.98
2023-01-08T00:33:25.450Z,1.05
2023-01-08T00:35:52.605Z,1.00
2023-01-08T00:38:19.724Z,1.42
2023-01-08T00:40:49.082Z,1.38
2023-01-08T00:43:16.197Z,1.55
2023-01-08T00:45:43.791Z,1.73
2023-01-08T00:48:11.461Z,1.70
2023-01-08T00:50:38.749Z,1.67
2023-01-08T00:53:05.842Z,2.25
2023-01-08T00:55:32.961Z,2.72
2023-01-08T00:58:00.202Z,2.33
2023-01-08T01:00:27.379Z,2.50
2023-01-08T01:02:56.460Z,2.95
2023-01-08T01:05:23.550Z,2.28
2023-01-08T01:07:50.771Z,2.53
2023-01-08T01:10:18.575Z,1.90
2023-01-08T01:12:45.803Z,1.45
2023-01-08T01:15:14.479Z,1.33
2023-01-08T01:17:42.426Z,1.63
2023-01-08T01:20:11.039Z,1.40
2023-01-08T01:22:38.831Z,1.45
2023-01-08T01:25:06.252Z,1.05
2023-01-08T01:27:33.403Z,1.15
2023-01-08T01:30:00.490Z,1.30
2023-01-08T01:32:27.784Z,1.10
2023-01-08T01:34:54.896Z,1.35
2023-01-08T01:37:22.041Z,1.00
2023-01-08T01:39:49.402Z,1.30
2023-01-08T01:42:36.157Z,0.93
2023-01-08T01:45:04.451Z,0.90
2023-01-08T01:47:35.019Z,1.20
2023-01-08T01:50:08.351Z,1.40
2023-01-08T01:52:38.011Z,1.40
2023-01-08T01:55:06.460Z,1.13
2023-01-08T01:57:33.913Z,0.98
2023-01-08T02:00:04.446Z,0.70
2023-01-08T02:02:32.626Z,1.10
2023-01-08T02:05:00.832Z,0.80
2023-01-08T02:07:27.935Z,0.90
2023-01-08T02:10:01.870Z,0.93
2023-01-08T02:12:34.821Z,0.77
2023-01-08T02:15:05.696Z,0.88
2023-01-08T02:17:51.646Z,0.80
2023-01-08T02:20:31.661Z,0.95
2023-01-08T02:23:19.219Z,0.63
2023-01-08T02:26:01.330Z,0.90
2023-01-08T02:28:29.499Z,0.80
2023-01-08T02:30:57.311Z,0.73
2023-01-08T02:33:25.179Z,1.05
2023-01-08T02:36:11.862Z,1.23
2023-01-08T02:38:43.365Z,0.90
2023-01-08T02:41:11.384Z,1.08
2023-01-08T02:43:41.316Z,1.10
2023-01-08T02:46:12.234Z,0.95
2023-01-08T02:48:41.737Z,1.40
2023-01-08T02:51:14.626Z,1.00
2023-01-08T02:53:43.600Z,0.93
2023-01-08T02:56:25.622Z,1.42
2023-01-08T02:58:53.933Z,1.15
2023-01-08T03:01:22.615Z,0.98
2023-01-08T03:04:05.617Z,1.40
2023-01-08T03:06:32.917Z,1.48
2023-01-08T03:09:01.099Z,1.38
2023-01-08T03:11:32.742Z,1.05
2023-01-08T03:14:16.429Z,1.30
2023-01-08T03:16:48.480Z,1.00
2023-01-08T03:19:21.132Z,1.35
2023-01-08T03:21:49.044Z,1.50
2023-01-08T03:24:17.916Z,1.50
2023-01-08T03:29:13.831Z,1.92
2023-01-08T03:34:08.354Z,2.00
2023-01-08T03:36:37.187Z,2.20
2023-01-08T03:41:33.154Z,2.30
2023-01-08T03:44:00.291Z,2.28
2023-01-08T03:46:30.788Z,2.03
2023-01-08T03:48:59.381Z,2.00
2023-01-08T03:51:26.556Z,2.33
2023-01-08T03:53:55.215Z,2.17
2023-01-08T03:56:22.357Z,2.72
2023-01-08T03:58:49.871Z,2.20
2023-01-08T04:01:17.059Z,1.92
2023-01-08T04:03:44.237Z,2.10
2023-01-08T04:06:11.368Z,1.60
2023-01-08T04:08:38.610Z,1.70
2023-01-08T04:11:06.204Z,1.80
2023-01-08T04:13:33.324Z,1.30
2023-01-08T04:16:00.578Z,1.48
2023-01-08T04:18:27.721Z,1.60
2023-01-08T04:20:55.662Z,1.10
2023-01-08T04:23:22.928Z,1.58
2023-01-08T04:25:50.025Z,1.33
2023-01-08T04:28:17.115Z,1.15
2023-01-08T04:30:44.504Z,1.02
2023-01-08T04:33:11.709Z,1.15
2023-01-08T04:35:39.290Z,1.45
2023-01-08T04:38:06.367Z,1.00
2023-01-08T04:40:33.897Z,1.25
2023-01-08T04:43:01.176Z,1.08
2023-01-08T04:45:28.357Z,1.00
2023-01-08T04:47:58.588Z,0.70
2023-01-08T04:50:25.881Z,1.10
2023-01-08T04:52:53.282Z,0.90
2023-01-08T04:55:20.738Z,0.70
2023-01-08T04:57:48.472Z,0.70
2023-01-08T05:00:16.020Z,0.70
2023-01-08T05:02:43.483Z,0.70
2023-01-08T05:05:10.815Z,1.00
2023-01-08T05:07:37.921Z,0.95
2023-01-08T05:10:05.402Z,1.00
2023-01-08T05:12:32.869Z,0.90
2023-01-08T05:14:59.929Z,0.68
2023-01-08T05:17:27.032Z,0.90
2023-01-08T05:19:54.107Z,0.70
2023-01-08T05:22:21.551Z,0.95
2023-01-08T05:24:49.096Z,1.08
2023-01-08T05:27:16.224Z,1.40
2023-01-08T05:29:43.340Z,1.00
2023-01-08T05:32:15.361Z,0.80
2023-01-08T05:34:42.652Z,0.85
2023-01-08T05:37:10.141Z,0.90
2023-01-08T05:39:37.889Z,1.20
2023-01-08T05:42:05.378Z,0.90
2023-01-08T05:44:32.549Z,0.95
2023-01-08T05:46:59.640Z,0.90
2023-01-08T05:49:27.149Z,0.90
2023-01-08T05:51:54.282Z,1.17
2023-01-08T05:54:21.404Z,0.85
2023-01-08T05:56:48.833Z,1.42
2023-01-08T05:59:15.978Z,1.17
2023-01-08T06:01:43.334Z,1.35
2023-01-08T06:04:10.541Z,1.30
2023-01-08T06:06:37.897Z,1.42
2023-01-08T06:09:05.014Z,1.20
2023-01-08T06:11:32.158Z,1.38
2023-01-08T06:13:59.319Z,1.50
2023-01-08T06:16:26.380Z,1.20
2023-01-08T06:18:53.682Z,1.20
2023-01-08T06:21:20.830Z,1.05
2023-01-08T06:23:48.030Z,1.58
2023-01-08T06:26:15.133Z,1.15
2023-01-08T06:28:42.251Z,1.35
2023-01-08T06:31:09.600Z,1.08
2023-01-08T06:33:36.829Z,1.08
2023-01-08T06:36:05.205Z,1.40
2023-01-08T06:38:33.159Z,1.40
2023-01-08T06:41:03.418Z,1.13
2023-01-08T06:43:30.962Z,1.23
2023-01-08T06:45:58.423Z,1.10
2023-01-08T06:48:26.062Z,0.70
2023-01-08T06:50:53.441Z,0.68
2023-01-08T06:53:20.804Z,1.27
2023-01-08T06:55:48.724Z,0.98
2023-01-08T06:58:15.861Z,1.10
2023-01-08T07:00:44.045Z,1.20
2023-01-08T07:03:11.370Z,1.30
2023-01-08T07:05:38.551Z,1.20
2023-01-08T07:08:06.064Z,1.08
2023-01-08T07:10:34.960Z,1.38
2023-01-08T07:13:02.233Z,1.30
2023-01-08T07:15:29.345Z,1.27
2023-01-08T07:17:56.651Z,1.20
2023-01-08T07:20:23.938Z,0.85
2023-01-08T07:22:51.077Z,1.33
2023-01-08T07:25:18.233Z,1.38
2023-01-08T07:27:46.377Z,1.05
2023-01-08T07:30:28.200Z,1.20
2023-01-08T07:33:00.447Z,0.80
2023-01-08T07:35:27.621Z,1.08
2023-01-08T07:37:54.760Z,1.00
2023-01-08T07:40:21.892Z,1.38
2023-01-08T07:42:49.131Z,0.98
2023-01-08T07:45:16.557Z,1.45
2023-01-08T07:47:43.727Z,1.30
2023-01-08T07:50:10.898Z,1.10
2023-01-08T07:52:38.029Z,0.80
2023-01-08T07:55:05.335Z,1.00
2023-01-08T07:57:32.678Z,1.00
2023-01-08T07:59:59.826Z,1.08
2023-01-08T08:02:27.048Z,1.00
2023-01-08T08:04:54.252Z,1.45
2023-01-08T08:07:21.406Z,1.15
2023-01-08T08:09:48.658Z,1.40
2023-01-08T08:12:15.797Z,0.95
2023-01-08T08:14:42.931Z,1.20
2023-01-08T08:17:10.081Z,1.45
2023-01-08T08:19:37.167Z,1.67
2023-01-08T08:22:04.485Z,1.02
2023-01-08T08:24:31.566Z,1.35
2023-01-08T08:26:58.661Z,1.23
2023-01-08T08:29:25.767Z,1.35
2023-01-08T08:31:52.898Z,1.35
2023-01-08T08:34:22.723Z,1.23
2023-01-08T08:36:50.086Z,1.05
2023-01-08T08:39:17.356Z,1.33
2023-01-08T08:41:44.450Z,1.48
2023-01-08T08:44:11.532Z,0.98
2023-01-08T08:46:38.861Z,1.10
2023-01-08T08:49:05.985Z,0.65
2023-01-08T08:51:33.124Z,1.48
2023-01-08T08:54:00.188Z,0.95
2023-01-08T08:56:47.000Z,0.90
2023-01-08T08:59:14.142Z,1.10
2023-01-08T09:01:41.414Z,1.13
2023-01-08T09:04:08.784Z,1.40
2023-01-08T09:06:35.956Z,1.30
2023-01-08T09:09:03.566Z,1.08
2023-01-08T09:11:30.661Z,1.30
2023-01-08T09:13:57.844Z,1.77
2023-01-08T09:16:25.958Z,1.17
2023-01-08T09:18:53.151Z,1.45
2023-01-08T09:21:20.249Z,1.70
2023-01-08T09:23:49.384Z,1.67
2023-01-08T09:26:16.540Z,1.33
2023-01-08T09:28:43.939Z,1.35
2023-01-08T09:31:11.125Z,1.30
2023-01-08T09:33:38.288Z,1.70
2023-01-08T09:36:05.536Z,1.20
2023-01-08T09:38:32.794Z,1.17
2023-01-08T09:41:05.173Z,1.25
2023-01-08T09:43:34.136Z,1.20
2023-01-08T09:48:38.262Z,1.48
2023-01-08T09:51:06.098Z,1.65
2023-01-08T09:53:33.746Z,1.15
2023-01-08T09:56:10.056Z,1.35
2023-01-08T09:58:39.329Z,1.30
2023-01-08T10:01:07.418Z,1.35
2023-01-08T10:03:42.713Z,1.42
2023-01-08T10:06:10.879Z,1.38
2023-01-08T10:08:38.071Z,1.70
2023-01-08T10:11:05.982Z,1.00
2023-01-08T10:13:34.209Z,1.38
2023-01-08T10:16:01.414Z,1.10
2023-01-08T10:18:29.406Z,1.23
2023-01-08T10:20:56.622Z,1.08
2023-01-08T10:23:23.926Z,1.30
2023-01-08T10:25:54.193Z,1.60
2023-01-08T10:28:31.948Z,1.13
2023-01-08T10:31:16.424Z,1.55
2023-01-08T10:33:50.416Z,1.48
2023-01-08T10:36:19.346Z,1.42
2023-01-08T10:38:51.701Z,1.38
2023-01-08T10:41:19.237Z,1.10
2023-01-08T10:43:49.318Z,1.27
2023-01-08T10:46:22.820Z,1.55
2023-01-08T10:48:55.685Z,1.10
2023-01-08T10:51:23.864Z,1.33
2023-01-08T10:53:51.328Z,1.27
2023-01-08T10:56:28.690Z,1.20
2023-01-08T10:58:56.370Z,1.15
2023-01-08T11:01:31.539Z,1.42
2023-01-08T11:04:03.356Z,1.30
2023-01-08T11:06:32.145Z,1.20
2023-01-08T11:09:00.956Z,0.95
2023-01-08T11:13:58.329Z,1.10
2023-01-08T11:16:33.581Z,0.85
2023-01-08T11:19:00.889Z,1.10
2023-01-08T11:21:32.745Z,1.20
2023-01-08T11:24:16.365Z,1.20
2023-01-08T11:26:49.763Z,1.65
2023-01-08T11:29:21.281Z,1.33
2023-01-08T11:32:28.353Z,1.10
2023-01-08T11:35:01.711Z,1.13
2023-01-08T11:37:37.757Z,1.05
2023-01-08T11:40:12.197Z,1.30
2023-01-08T11:42:39.330Z,1.13
2023-01-08T11:45:06.489Z,1.20
2023-01-08T11:47:33.957Z,1.27
2023-01-08T11:50:01.079Z,1.17
2023-01-08T11:52:37.748Z,1.23
2023-01-08T11:55:04.897Z,1.05
2023-01-08T11:57:43.797Z,1.02
2023-01-08T12:00:28.628Z,1.10
2023-01-08T12:02:57.311Z,1.05
2023-01-08T12:05:33.381Z,1.10
2023-01-08T12:08:05.236Z,1.02
2023-01-08T12:10:51.285Z,1.20
2023-01-08T12:13:28.798Z,1.02
2023-01-08T12:16:11.352Z,0.95
2023-01-08T12:18:44.504Z,1.05
2023-01-08T12:21:37.820Z,1.00
2023-01-08T12:26:43.794Z,1.40
2023-01-08T12:29:29.661Z,1.02
2023-01-08T12:32:03.120Z,1.08
2023-01-08T12:34:39.872Z,0.85
2023-01-08T12:37:19.392Z,0.95
2023-01-08T12:40:02.377Z,1.05
2023-01-08T12:42:30.945Z,0.90
2023-01-08T12:45:00.238Z,1.20
2023-01-08T12:47:30.631Z,1.30
2023-01-08T12:50:04.830Z,1.10
2023-01-08T12:52:45.524Z,1.10
2023-01-08T12:55:27.796Z,1.63
2023-01-08T12:58:00.984Z,1.20
2023-01-08T13:00:28.096Z,0.82
2023-01-08T13:02:58.679Z,0.90
2023-01-08T13:05:25.813Z,1.10
2023-01-08T13:08:00.485Z,1.00
2023-01-08T13:10:41.195Z,1.00
2023-01-08T13:13:09.605Z,0.88
2023-01-08T13:15:36.872Z,0.85
2023-01-08T13:18:17.401Z,0.65
2023-01-08T13:20:55.172Z,1.33
2023-01-08T13:23:24.915Z,0.95
2023-01-08T13:25:53.123Z,1.02
2023-01-08T13:28:27.650Z,1.10
2023-01-08T13:30:58.208Z,0.80
2023-01-08T13:33:41.382Z,1.33
2023-01-08T13:36:20.972Z,0.90
2023-01-08T13:38:59.828Z,0.82
2023-01-08T13:41:34.343Z,0.80
2023-01-08T13:44:06.516Z,0.82
2023-01-08T13:46:35.526Z,1.30
2023-01-08T13:49:05.502Z,1.20
2023-01-08T13:51:38.845Z,1.10
2023-01-08T13:54:26.373Z,1.10
2023-01-08T13:56:55.041Z,1.08
2023-01-08T13:59:22.201Z,0.85
2023-01-08T14:01:56.397Z,1.15
2023-01-08T14:04:24.659Z,1.10
2023-01-08T14:06:52.180Z,1.02
2023-01-08T14:09:23.480Z,0.80
2023-01-08T14:15:24.826Z,0.90
2023-01-08T14:17:52.244Z,1.23
2023-01-08T14:20:31.048Z,1.10
2023-01-08T14:22:58.376Z,0.85
2023-01-08T14:25:25.705Z,0.65
2023-01-08T14:27:57.797Z,0.93
2023-01-08T14:30:25.477Z,1.42
2023-01-08T14:32:52.937Z,1.25
2023-01-08T14:35:21.689Z,1.67
2023-01-08T14:37:48.915Z,1.73
2023-01-08T14:40:16.952Z,3.45
2023-01-08T14:42:53.484Z,2.55
2023-01-08T14:45:23.092Z,1.80
2023-01-08T14:47:51.818Z,1.33
2023-01-08T14:50:20.443Z,2.20
2023-01-08T14:52:48.256Z,1.70
2023-01-08T14:55:18.650Z,1.50
2023-01-08T14:57:46.902Z,1.30
2023-01-08T15:00:19.447Z,1.38
2023-01-08T15:02:48.965Z,1.70
2023-01-08T15:05:32.631Z,2.00
2023-01-08T15:08:01.954Z,1.52
2023-01-08T15:10:40.113Z,1.27
2023-01-08T15:13:08.617Z,1.20
2023-01-08T15:15:38.150Z,1.50
2023-01-08T15:18:08.527Z,1.63
2023-01-08T15:20:37.003Z,1.45
2023-01-08T15:23:04.287Z,1.25
2023-01-08T15:25:32.326Z,1.42
2023-01-08T15:28:01.863Z,1.67
2023-01-08T15:30:39.960Z,1.38
2023-01-08T15:33:08.232Z,1.40
2023-01-08T15:35:35.527Z,1.50
2023-01-08T15:38:02.722Z,1.90
2023-01-08T15:40:29.904Z,1.85
2023-01-08T15:43:12.535Z,1.40
2023-01-08T15:45:41.058Z,1.83
2023-01-08T15:48:08.876Z,1.60
2023-01-08T15:50:38.617Z,1.80
2023-01-08T15:53:07.912Z,1.45
2023-01-08T15:55:35.186Z,1.70
2023-01-08T15:58:02.282Z,1.60
2023-01-08T16:00:29.685Z,1.65
2023-01-08T16:02:59.536Z,1.95
2023-01-08T16:05:29.827Z,1.77
2023-01-08T16:07:57.362Z,1.63
2023-01-08T16:10:25.016Z,3.10
2023-01-08T16:12:52.426Z,3.28
2023-01-08T16:15:19.764Z,3.05
2023-01-08T16:17:48.509Z,1.90
2023-01-08T16:20:15.780Z,3.42
2023-01-08T16:22:43.712Z,3.30
2023-01-08T16:25:11.368Z,2.70
2023-01-08T16:27:39.664Z,3.15
2023-01-08T16:30:07.834Z,3.22
2023-01-08T16:32:34.979Z,3.97
2023-01-08T16:35:02.119Z,1.88
2023-01-08T16:37:29.318Z,2.20
2023-01-08T16:39:56.474Z,1.88
2023-01-08T16:42:23.670Z,1.80
2023-01-08T16:44:50.842Z,1.52
2023-01-08T16:47:17.999Z,2.70
2023-01-08T16:49:45.137Z,2.92
2023-01-08T16:52:12.323Z,1.83
2023-01-08T16:54:39.537Z,1.75
2023-01-08T16:57:06.643Z,2.10
2023-01-08T16:59:33.934Z,1.92
2023-01-08T17:02:01.113Z,1.98
2023-01-08T17:04:31.185Z,1.70
2023-01-08T17:06:58.599Z,1.55
2023-01-08T17:09:30.764Z,1.67
2023-01-08T17:12:02.345Z,1.52
2023-01-08T17:14:29.535Z,1.90
2023-01-08T17:16:56.799Z,1.58
2023-01-08T17:19:24.037Z,1.90
2023-01-08T17:27:17.437Z,2.15
2023-01-08T17:29:52.148Z,1.70
2023-01-08T17:32:19.295Z,1.63
2023-01-08T17:34:46.617Z,1.75
2023-01-08T17:37:13.769Z,1.80
2023-01-08T17:39:43.648Z,1.80
2023-01-08T17:42:26.821Z,2.50
2023-01-08T17:44:55.327Z,1.85
2023-01-08T17:47:24.352Z,2.45
2023-01-08T17:49:55.768Z,3.47
2023-01-08T17:52:23.905Z,2.55
2023-01-08T17:54:52.969Z,12.27
2023-01-08T17:57:20.902Z,3.55
2023-01-08T17:59:48.875Z,2.88
2023-01-08T18:02:17.685Z,2.67
2023-01-08T18:04:45.677Z,3.72
2023-01-08T18:07:13.207Z,3.08
2023-01-08T18:09:40.402Z,1.85
2023-01-08T18:12:08.568Z,2.03
2023-01-08T18:14:37.615Z,2.03
2023-01-08T18:17:04.818Z,2.20
2023-01-08T18:19:31.949Z,1.90
2023-01-08T18:30:02.579Z,4.50
2023-01-08T18:32:29.937Z,2.63
2023-01-08T18:34:57.136Z,3.05
2023-01-08T18:37:24.963Z,5.00
2023-01-08T18:39:52.147Z,3.85
2023-01-08T18:42:28.888Z,3.38
2023-01-08T18:44:56.538Z,4.13
2023-01-08T18:47:24.548Z,2.70
2023-01-08T18:49:55.275Z,3.53
2023-01-08T18:52:22.837Z,6.32
2023-01-08T18:54:50.227Z,2.10
2023-01-08T18:57:17.668Z,2.78
2023-01-08T18:59:44.969Z,2.17
2023-01-08T19:02:17.784Z,2.58
2023-01-08T19:04:45.139Z,2.53
2023-01-08T19:07:30.164Z,2.50
2023-01-08T19:09:57.611Z,1.80
2023-01-08T19:12:27.580Z,2.38
2023-01-08T19:14:55.003Z,3.35
2023-01-08T19:17:22.254Z,2.70
2023-01-08T19:19:49.463Z,2.78
2023-01-08T19:22:16.782Z,3.80
2023-01-08T19:24:44.030Z,3.50
2023-01-08T19:27:11.140Z,2.40
2023-01-08T19:29:38.380Z,2.47
2023-01-08T19:32:07.586Z,2.22
2023-01-08T19:34:34.849Z,1.83
2023-01-08T19:37:02.072Z,2.40
2023-01-08T19:39:32.436Z,1.92
2023-01-08T19:42:18.774Z,3.10
2023-01-08T19:44:45.952Z,4.20
2023-01-08T19:47:13.145Z,2.58
2023-01-08T19:49:43.009Z,2.47
2023-01-08T19:52:10.402Z,3.25
2023-01-08T19:54:38.219Z,2.90
2023-01-08T19:57:05.378Z,2.05
2023-01-08T19:59:32.512Z,2.38
2023-01-08T20:01:59.723Z,2.15
2023-01-08T20:04:27.665Z,3.03
2023-01-08T20:06:54.844Z,1.67
2023-01-08T20:09:22.070Z,3.30
2023-01-08T20:11:49.228Z,2.38
2023-01-08T20:14:16.433Z,2.10
2023-01-08T20:16:43.637Z,2.97
2023-01-08T20:19:10.855Z,2.55
2023-01-08T20:25:08.237Z,1.55
2023-01-08T20:27:35.711Z,2.42
2023-01-08T20:30:03.167Z,1.63
2023-01-08T20:32:30.310Z,1.60
2023-01-08T20:34:57.456Z,1.35
2023-01-08T20:37:24.581Z,2.20
2023-01-08T20:39:51.756Z,2.00
2023-01-08T20:42:32.882Z,1.67
2023-01-08T20:45:01.023Z,1.60
2023-01-08T20:47:28.246Z,1.92
2023-01-08T20:49:55.369Z,2.20
2023-01-08T20:52:22.493Z,1.67
2023-01-08T20:54:52.981Z,1.58
2023-01-08T20:57:20.230Z,1.63
2023-01-08T20:59:47.435Z,2.08
2023-01-08T21:02:14.589Z,1.75
2023-01-08T21:04:43.725Z,1.20
2023-01-08T21:07:10.864Z,1.40
2023-01-08T21:09:39.615Z,1.90
2023-01-08T21:12:08.041Z,1.67
2023-01-08T21:14:35.168Z,1.67
2023-01-08T21:17:02.301Z,1.55
2023-01-08T21:19:29.516Z,1.90
2023-01-08T21:21:56.628Z,1.35
2023-01-08T21:24:23.818Z,1.80
2023-01-08T21:26:51.007Z,1.35
2023-01-08T21:29:20.790Z,1.50
2023-01-08T21:31:48.134Z,1.40
2023-01-08T21:34:15.373Z,1.42
2023-01-08T21:36:42.545Z,1.70
2023-01-08T21:39:11.142Z,1.50
2023-01-08T21:41:57.007Z,1.75
2023-01-08T21:44:43.916Z,1.50
2023-01-08T21:47:12.948Z,1.48
2023-01-08T21:49:40.531Z,1.50
2023-01-08T21:52:26.920Z,1.60
2023-01-08T21:54:54.469Z,1.20
2023-01-08T21:57:22.089Z,1.67
2023-01-08T21:59:50.231Z,1.20
2023-01-08T22:02:18.377Z,1.35
2023-01-08T22:04:45.875Z,1.55
2023-01-08T22:07:13.184Z,1.67
2023-01-08T22:09:40.321Z,1.50
2023-01-08T22:12:07.735Z,1.30
2023-01-08T22:14:35.571Z,1.73
2023-01-08T22:17:04.112Z,1.38
2023-01-08T22:19:31.481Z,1.40
2023-01-08T22:21:58.617Z,1.23
2023-01-08T22:24:25.786Z,1.67
2023-01-08T22:26:52.964Z,1.70
2023-01-08T22:29:21.191Z,1.60
2023-01-08T22:31:48.559Z,1.50
2023-01-08T22:34:17.325Z,2.00
2023-01-08T22:36:45.436Z,1.38
2023-01-08T22:39:13.146Z,1.60
2023-01-08T22:41:40.285Z,1.42
2023-01-08T22:44:07.630Z,1.42
2023-01-08T22:46:34.784Z,1.20
2023-01-08T22:49:01.974Z,1.70
2023-01-08T22:51:29.171Z,1.30
2023-01-08T22:53:56.977Z,1.70
2023-01-08T22:56:24.625Z,1.27
2023-01-08T22:58:52.130Z,1.30
2023-01-08T23:01:21.389Z,1.55
2023-01-08T23:03:49.309Z,1.40
2023-01-08T23:06:17.164Z,1.38
2023-01-08T23:08:44.864Z,1.50
2023-01-08T23:11:13.793Z,1.30
2023-01-08T23:13:41.629Z,1.23
2023-01-08T23:16:09.722Z,1.00
2023-01-08T23:18:37.031Z,0.90
2023-01-08T23:21:04.757Z,0.90
2023-01-08T23:23:32.471Z,0.70
2023-01-08T23:26:06.731Z,0.88
2023-01-08T23:28:34.298Z,0.88
2023-01-08T23:31:01.486Z,0.77
2023-01-08T23:33:28.705Z,1.00
2023-01-08T23:35:55.784Z,0.93
2023-01-08T23:38:22.995Z,0.80
2023-01-08T23:40:50.133Z,1.08
2023-01-08T23:43:17.505Z,0.82
2023-01-08T23:45:44.897Z,0.80
2023-01-08T23:48:12.005Z,0.90
2023-01-08T23:50:39.127Z,0.93
2023-01-08T23:53:06.562Z,0.80
2023-01-08T23:55:35.123Z,0.55
2023-01-08T23:58:03.306Z,0.80
